< < Back
Terminal Aerodrome Forecast


Current Version              Previous Versions:   1  2  3  4  5  6  7  8  9  

Terminal Aerodrome Forecast

855
FTUS44 KHUN 051730
TAFHSV
TAF
KHSV 051730Z 0518/0618 32015G25KT P6SM SCT060
     FM052000 32015G25KT P6SM BKN050
     FM060100 35005KT P6SM SKC
     FM061400 35012KT P6SM SKC=

Latest METAR

044
SAUS80 KWBC 061900 RRB
MTRHSV
METAR KHSV 061853Z 10SM FEW070 SCT080 BKN250 23/04 A3000 RMK AO2 SLP157
T02330044


USA.gov is the U.S. government's official web portal to all federal, state and local government web resources and services.